KFXY/FXY METAR and TAF weather

Enter ICAO airport designator
Station Type Date Time Source
KFXY METAR 2022/01/29 09:35 UTC NOAA

KFXY 290935Z AUTO 12004KT 10SM CLR M12/M17 A3008 RMK AO2


Station Type Date Time Source
KFXY Decoded METAR 2022/01/29 09:35 UTC NOAA

Station name not available
Jan 29, 2022 - 04:35 AM EST / 2022.01.29 0935 UTC
Wind: from the ESE (120 degrees) at 5 MPH (4 KT):0
Visibility: 10 mile(s):0
Sky conditions: clear
Temperature: 10 F (-12 C)
Windchill: 1 F (-17 C):1
Dew Point: 1 F (-17 C)
Relative Humidity: 66%
Pressure (altimeter): 30.08 in. Hg (1018 hPa)
ob: KFXY 290935Z AUTO 12004KT 10SM CLR M12/M17 A3008 RMK AO2
cycle: 9

Station Type Date Time Source
KFXY TAF UTC NOAA

Error!

Example: see airport list